createdAt,value
2022-09-07T00:02:37.040Z,7.90
2022-09-07T00:07:41.248Z,7.78
2022-09-07T00:12:45.210Z,7.43
2022-09-07T00:17:50.500Z,7.03
2022-09-07T00:22:54.485Z,7.43
2022-09-07T00:27:58.494Z,7.47
2022-09-07T00:33:03.873Z,7.60
2022-09-07T00:38:07.765Z,8.40
2022-09-07T00:43:17.379Z,7.15
2022-09-07T00:48:27.067Z,8.57
2022-09-07T00:53:34.504Z,7.32
2022-09-07T00:58:41.912Z,7.35
2022-09-07T01:03:55.037Z,7.43
2022-09-07T01:09:03.672Z,7.10
2022-09-07T01:14:10.709Z,7.47
2022-09-07T01:19:49.396Z,7.32
2022-09-07T01:25:04.321Z,8.77
2022-09-07T01:30:12.923Z,7.60
2022-09-07T01:35:38.755Z,7.13
2022-09-07T01:40:50.408Z,7.33
2022-09-07T01:45:58.404Z,7.28
2022-09-07T01:51:04.933Z,8.05
2022-09-07T01:56:14.401Z,7.97
2022-09-07T02:01:25.442Z,8.13
2022-09-07T02:06:38.024Z,8.05
2022-09-07T02:11:45.207Z,8.27
2022-09-07T02:16:57.430Z,8.95
2022-09-07T02:22:06.211Z,8.75
2022-09-07T02:27:15.236Z,8.93
2022-09-07T02:32:20.615Z,8.68
2022-09-07T02:37:28.726Z,9.18
2022-09-07T02:42:35.278Z,8.98
2022-09-07T02:47:53.655Z,8.65
2022-09-07T02:53:13.803Z,8.57
2022-09-07T02:58:27.913Z,9.02
2022-09-07T03:03:46.090Z,9.13
2022-09-07T03:08:54.608Z,8.60
2022-09-07T03:14:13.146Z,8.25
2022-09-07T03:19:18.900Z,8.80
2022-09-07T03:24:25.266Z,6.75
2022-09-07T03:29:29.413Z,8.85
2022-09-07T03:34:35.716Z,9.32
2022-09-07T03:39:39.554Z,9.15
2022-09-07T03:44:43.495Z,8.82
2022-09-07T03:49:49.147Z,8.45
2022-09-07T03:54:53.113Z,8.80
2022-09-07T03:59:57.017Z,10.13
2022-09-07T04:05:02.302Z,10.23
2022-09-07T04:10:06.682Z,9.17
2022-09-07T04:15:11.846Z,9.20
2022-09-07T04:20:19.899Z,9.60
2022-09-07T04:25:23.963Z,11.02
2022-09-07T04:30:28.137Z,9.68
2022-09-07T04:35:37.292Z,9.13
2022-09-07T04:40:41.460Z,10.10
2022-09-07T04:45:45.473Z,9.20
2022-09-07T04:50:52.181Z,9.27
2022-09-07T04:55:56.131Z,9.80
2022-09-07T05:01:03.088Z,9.60
2022-09-07T05:06:09.593Z,9.20
2022-09-07T05:11:15.063Z,11.25
2022-09-07T05:16:20.877Z,9.73
2022-09-07T05:21:28.393Z,8.88
2022-09-07T05:26:34.672Z,9.57
2022-09-07T05:36:43.731Z,10.05
2022-09-07T05:41:47.743Z,9.73
2022-09-07T05:46:52.690Z,9.80
2022-09-07T05:51:58.113Z,10.13
2022-09-07T05:57:05.388Z,9.00
2022-09-07T06:02:12.315Z,11.43
2022-09-07T06:07:21.981Z,10.32
2022-09-07T06:12:26.878Z,10.65
2022-09-07T06:17:31.636Z,10.45
2022-09-07T06:22:38.323Z,11.05
2022-09-07T06:27:42.278Z,10.95
2022-09-07T06:32:46.459Z,10.85
2022-09-07T06:37:51.816Z,10.80
2022-09-07T06:42:55.759Z,10.45
2022-09-07T06:47:59.720Z,10.38
2022-09-07T06:58:29.415Z,9.90
2022-09-07T07:03:33.745Z,8.80
2022-09-07T07:11:15.039Z,9.00
2022-09-07T07:56:45.617Z,10.15
2022-09-07T08:09:14.227Z,9.30
2022-09-07T08:14:58.204Z,8.07
2022-09-07T08:20:14.124Z,7.93
2022-09-07T08:25:19.369Z,7.82
2022-09-07T08:30:23.177Z,9.83
2022-09-07T08:35:28.592Z,8.23
2022-09-07T08:40:40.380Z,8.48
2022-09-07T08:45:47.498Z,7.82
2022-09-07T08:50:56.490Z,7.25
2022-09-07T08:56:05.605Z,7.82
2022-09-07T09:06:50.222Z,6.72
2022-09-07T09:12:14.022Z,7.10
2022-09-07T09:17:29.633Z,7.32
2022-09-07T09:22:53.802Z,13.10
2022-09-07T09:28:32.458Z,7.28
2022-09-07T09:33:34.894Z,6.75
2022-09-07T09:38:50.062Z,8.07
2022-09-07T09:43:57.350Z,7.25
2022-09-07T09:49:04.793Z,6.63
2022-09-07T09:54:26.043Z,7.00
2022-09-07T10:00:28.040Z,7.30
2022-09-07T10:13:14.065Z,6.88
2022-09-07T10:18:59.059Z,6.57
2022-09-07T10:24:29.147Z,6.50
2022-09-07T10:29:42.618Z,6.22
2022-09-07T10:34:58.512Z,6.70
2022-09-07T10:40:12.475Z,6.63
2022-09-07T10:45:21.612Z,7.18
2022-09-07T10:50:32.046Z,7.70
2022-09-07T10:55:41.352Z,8.20
2022-09-07T11:00:59.041Z,7.15
2022-09-07T11:06:15.258Z,6.13
2022-09-07T11:17:07.150Z,6.18
2022-09-07T11:22:21.241Z,6.13
2022-09-07T11:27:30.757Z,5.15
2022-09-07T11:32:38.682Z,5.70
2022-09-07T11:37:48.211Z,5.30
2022-09-07T11:42:55.913Z,5.18
2022-09-07T11:48:04.713Z,4.85
2022-09-07T11:53:16.615Z,4.80
2022-09-07T11:58:50.369Z,5.38
2022-09-07T12:04:15.369Z,5.15
2022-09-07T12:09:37.197Z,4.68
2022-09-07T12:14:56.521Z,8.80
2022-09-07T12:20:24.989Z,4.63
2022-09-07T12:25:51.825Z,5.15
2022-09-07T12:31:01.916Z,6.10
2022-09-07T12:36:39.620Z,7.57
2022-09-07T12:41:47.969Z,4.38
2022-09-07T12:47:03.310Z,4.28
2022-09-07T12:52:23.169Z,4.85
2022-09-07T12:58:43.793Z,5.47
2022-09-07T13:19:02.025Z,6.13
2022-09-07T13:24:47.150Z,4.30
2022-09-07T13:29:56.581Z,3.88
2022-09-07T13:35:19.355Z,4.00
2022-09-07T13:40:27.616Z,4.78
2022-09-07T13:45:45.655Z,4.15
2022-09-07T13:50:58.323Z,3.97
2022-09-07T13:56:15.578Z,4.30
2022-09-07T14:01:22.182Z,4.80
2022-09-07T14:06:33.637Z,4.82
2022-09-07T14:11:42.468Z,4.20
2022-09-07T14:16:49.607Z,4.82
2022-09-07T14:22:01.503Z,6.07
2022-09-07T14:27:07.947Z,5.47
2022-09-07T14:32:17.378Z,4.68
2022-09-07T14:37:24.036Z,5.32
2022-09-07T14:42:27.939Z,5.95
2022-09-07T14:47:34.882Z,7.15
2022-09-07T14:53:33.599Z,6.03
2022-09-07T14:58:11.907Z,5.78
2022-09-07T15:03:30.454Z,4.85
2022-09-07T15:08:41.332Z,5.28
2022-09-07T15:13:53.751Z,5.20
2022-09-07T15:19:02.456Z,5.50
2022-09-07T15:24:07.885Z,6.55
2022-09-07T15:29:13.003Z,14.73
2022-09-07T15:34:18.754Z,6.70
2022-09-07T15:39:25.713Z,5.50
2022-09-07T15:44:30.186Z,6.25
2022-09-07T15:49:34.453Z,4.60
2022-09-07T15:54:40.085Z,26.35
2022-09-07T15:59:44.419Z,6.80
2022-09-07T16:04:48.334Z,6.20
2022-09-07T16:09:53.795Z,4.50
2022-09-07T16:14:57.967Z,4.68
2022-09-07T16:20:02.545Z,4.17
2022-09-07T16:25:08.599Z,4.45
2022-09-07T16:30:13.497Z,4.63
2022-09-07T16:40:23.568Z,5.30
2022-09-07T16:51:00.279Z,5.80
2022-09-07T16:56:08.745Z,6.10
2022-09-07T17:01:14.860Z,5.80
2022-09-07T17:06:20.593Z,7.07
2022-09-07T17:11:27.441Z,7.88
2022-09-07T17:16:33.591Z,8.13
2022-09-07T17:21:41.118Z,7.53
2022-09-07T17:27:15.929Z,7.32
2022-09-07T17:37:28.946Z,9.07
2022-09-07T17:47:58.387Z,11.73
2022-09-07T17:53:02.425Z,10.63
2022-09-07T17:58:07.747Z,9.73
2022-09-07T18:03:12.926Z,9.75
2022-09-07T18:08:17.026Z,10.15
2022-09-07T18:13:33.588Z,9.95
2022-09-07T18:18:40.061Z,11.38
2022-09-07T18:23:44.193Z,10.52
2022-09-07T18:29:15.898Z,35.70
2022-09-07T18:34:15.843Z,17.70
2022-09-07T18:39:19.910Z,19.60
2022-09-07T18:49:50.859Z,16.20
2022-09-07T18:54:54.757Z,16.38
2022-09-07T19:00:00.061Z,16.85
2022-09-07T19:10:28.441Z,16.20
2022-09-07T19:15:37.949Z,15.27
2022-09-07T19:20:42.202Z,17.58
2022-09-07T19:25:46.049Z,18.73
2022-09-07T19:30:51.393Z,17.00
2022-09-07T19:35:55.407Z,16.50
2022-09-07T19:41:00.036Z,18.48
2022-09-07T19:46:05.449Z,17.53
2022-09-07T19:51:12.061Z,20.13
2022-09-07T19:56:17.345Z,18.15
2022-09-07T20:01:25.137Z,18.55
2022-09-07T20:06:29.338Z,18.10
2022-09-07T20:11:34.765Z,18.17
2022-09-07T20:16:41.771Z,17.85
2022-09-07T20:26:57.361Z,19.05
2022-09-07T20:32:01.754Z,16.50
2022-09-07T20:37:06.534Z,16.98
2022-09-07T20:42:11.865Z,17.70
2022-09-07T20:47:15.661Z,18.57
2022-09-07T20:52:19.493Z,17.85
2022-09-07T20:57:24.853Z,16.05
2022-09-07T21:02:28.804Z,18.95
2022-09-07T21:07:32.929Z,18.88
2022-09-07T21:12:38.259Z,19.88
2022-09-07T21:17:42.027Z,20.58
2022-09-07T21:22:45.785Z,21.35
2022-09-07T21:27:50.948Z,19.33
2022-09-07T21:32:54.923Z,21.63
2022-09-07T21:37:58.676Z,20.77
2022-09-07T21:43:03.691Z,19.95
2022-09-07T21:48:07.426Z,19.40
2022-09-07T21:53:12.742Z,19.02
2022-09-07T21:58:17.776Z,20.38
2022-09-07T22:03:22.361Z,18.93
2022-09-07T22:08:26.019Z,20.45
2022-09-07T22:13:31.130Z,20.25
2022-09-07T22:18:38.020Z,21.10
2022-09-07T22:23:45.518Z,20.98
2022-09-07T22:28:50.974Z,21.63
2022-09-07T22:33:56.807Z,20.30
2022-09-07T22:39:03.188Z,21.27
2022-09-07T22:44:12.094Z,20.77
2022-09-07T22:49:17.966Z,20.33
2022-09-07T22:54:21.740Z,19.85
2022-09-07T22:59:26.844Z,18.48
2022-09-07T23:04:31.912Z,20.23
2022-09-07T23:09:35.777Z,19.20
2022-09-07T23:14:40.780Z,18.77
2022-09-07T23:19:44.603Z,17.67
2022-09-07T23:24:48.612Z,18.25
2022-09-07T23:29:53.633Z,17.80
2022-09-07T23:34:57.345Z,17.90
2022-09-07T23:40:01.109Z,17.90
2022-09-07T23:45:08.256Z,16.92
2022-09-07T23:50:12.313Z,18.02
2022-09-07T23:55:16.159Z,17.75
